Alturas Rancheria, California
Current Conditions -  °F | °C
As of 3:55 AM on Monday 24 Nov 2014 (Local Time) from KAAT Reporting Station
Clear Clear  
Wind Chill: 23°   Ceiling: Unl
Heat Index: 23°   Visibility: 10mi
Dew Point: 21°   Wind: 0mph
Humidity: 92%   Direction: NA
Pressure: 30.41"   Gusts: NA
Location:  41.4836°N, 120.55°W
Report Text: KAAT 241155Z AUTO 00000KT 10SM CLR M05/M06 A3041 RMK AO2 SLP317 T10501061 11028 21056 51006
Loading
Personal Weather Stations






























Interactive Weather Map New forecast layout! Learn more

10-Day Weather Forecast

Advertisements
Track Severe Weather on mobile